createdAt,value
2023-04-16T00:02:11.857Z,8.66
2023-04-16T00:04:42.994Z,8.63
2023-04-16T00:07:16.502Z,8.67
2023-04-16T00:09:47.457Z,8.65
2023-04-16T00:12:18.287Z,8.69
2023-04-16T00:14:49.614Z,8.61
2023-04-16T00:17:20.309Z,8.61
2023-04-16T00:19:51.178Z,8.53
2023-04-16T00:22:24.511Z,8.53
2023-04-16T00:24:55.237Z,8.47
2023-04-16T00:27:25.913Z,8.49
2023-04-16T00:29:56.770Z,8.44
2023-04-16T00:32:27.552Z,8.46
2023-04-16T00:34:58.400Z,8.45
2023-04-16T00:37:31.726Z,8.49
2023-04-16T00:40:02.671Z,8.48
2023-04-16T00:42:35.271Z,8.53
2023-04-16T00:45:06.140Z,8.50
2023-04-16T00:47:37.293Z,8.51
2023-04-16T00:50:08.986Z,8.48
2023-04-16T00:52:43.211Z,8.50
2023-04-16T00:55:15.718Z,8.53
2023-04-16T00:57:46.681Z,8.53
2023-04-16T01:00:18.054Z,8.56
2023-04-16T01:02:49.074Z,8.59
2023-04-16T01:05:20.278Z,8.50
2023-04-16T01:07:54.073Z,8.57
2023-04-16T01:10:25.269Z,8.59
2023-04-16T01:12:56.532Z,8.60
2023-04-16T01:15:27.421Z,8.59
2023-04-16T01:17:58.489Z,8.60
2023-04-16T01:20:29.668Z,8.61
2023-04-16T01:23:03.017Z,8.62
2023-04-16T01:25:33.907Z,8.65
2023-04-16T01:28:04.699Z,8.66
2023-04-16T01:30:35.893Z,8.62
2023-04-16T01:33:18.288Z,8.60
2023-04-16T01:35:49.161Z,8.49
2023-04-16T01:38:22.743Z,8.50
2023-04-16T01:40:53.521Z,8.57
2023-04-16T01:43:24.240Z,8.55
2023-04-16T01:45:57.094Z,8.55
2023-04-16T01:48:27.849Z,8.50
2023-04-16T01:51:00.810Z,8.51
2023-04-16T01:53:36.944Z,8.45
2023-04-16T01:56:09.245Z,8.47
2023-04-16T01:58:41.652Z,8.40
2023-04-16T02:01:12.813Z,8.31
2023-04-16T02:03:44.910Z,8.29
2023-04-16T02:06:16.132Z,8.28
2023-04-16T02:08:49.616Z,8.20
2023-04-16T02:11:20.448Z,8.18
2023-04-16T02:13:52.622Z,8.06
2023-04-16T02:16:25.290Z,8.07
2023-04-16T02:19:00.322Z,7.93
2023-04-16T02:21:34.593Z,7.96
2023-04-16T02:24:08.526Z,7.87
2023-04-16T02:26:39.309Z,7.87
2023-04-16T02:29:16.877Z,7.83
2023-04-16T02:31:54.297Z,7.87
2023-04-16T02:34:25.987Z,7.77
2023-04-16T02:36:58.726Z,7.77
2023-04-16T02:39:32.067Z,7.69
2023-04-16T02:42:03.075Z,7.58
2023-04-16T02:44:33.868Z,7.49
2023-04-16T02:47:04.663Z,7.47
2023-04-16T02:49:36.344Z,7.48
2023-04-16T02:52:07.541Z,7.44
2023-04-16T02:54:41.293Z,7.53
2023-04-16T02:57:12.405Z,7.57
2023-04-16T02:59:43.496Z,7.49
2023-04-16T03:02:14.348Z,7.59
2023-04-16T03:04:45.112Z,7.60
2023-04-16T03:07:15.919Z,7.67
2023-04-16T03:09:49.414Z,7.67
2023-04-16T03:12:23.301Z,7.70
2023-04-16T03:14:54.552Z,7.66
2023-04-16T03:17:25.711Z,7.71
2023-04-16T03:19:56.641Z,7.69
2023-04-16T03:22:27.810Z,7.72
2023-04-16T03:25:01.215Z,7.64
2023-04-16T03:27:36.544Z,7.63
2023-04-16T03:30:09.462Z,7.50
2023-04-16T03:32:40.600Z,7.43
2023-04-16T03:35:12.999Z,7.39
2023-04-16T03:37:43.864Z,7.34
2023-04-16T03:40:17.888Z,7.39
2023-04-16T03:42:48.702Z,7.41
2023-04-16T03:45:20.642Z,7.48
2023-04-16T03:47:56.534Z,7.49
2023-04-16T03:50:30.163Z,7.53
2023-04-16T03:53:04.640Z,7.56
2023-04-16T03:55:38.762Z,7.46
2023-04-16T03:58:09.560Z,7.58
2023-04-16T04:00:40.318Z,7.58
2023-04-16T04:03:17.529Z,7.62
2023-04-16T04:05:50.763Z,7.66
2023-04-16T04:08:33.673Z,7.70
2023-04-16T04:11:07.718Z,7.63
2023-04-16T04:13:39.700Z,7.52
2023-04-16T04:16:11.046Z,7.65
2023-04-16T04:18:44.271Z,7.68
2023-04-16T04:21:16.297Z,7.71
2023-04-16T04:23:47.606Z,7.81
2023-04-16T04:26:21.450Z,7.97
2023-04-16T04:28:52.518Z,8.05
2023-04-16T04:31:23.396Z,8.16
2023-04-16T04:33:54.270Z,8.16
2023-04-16T04:36:25.229Z,8.19
2023-04-16T04:38:56.451Z,8.19
2023-04-16T04:41:30.447Z,8.12
2023-04-16T04:44:01.387Z,8.32
2023-04-16T04:46:32.343Z,8.41
2023-04-16T04:49:03.182Z,8.51
2023-04-16T04:51:35.307Z,8.57
2023-04-16T04:54:06.283Z,8.65
2023-04-16T04:56:39.790Z,8.65
2023-04-16T04:59:11.023Z,8.76
2023-04-16T05:01:43.219Z,8.79
2023-04-16T05:04:14.278Z,8.90
2023-04-16T05:06:45.011Z,8.95
2023-04-16T05:09:15.990Z,9.07
2023-04-16T05:11:49.344Z,9.11
2023-04-16T05:14:20.326Z,9.21
2023-04-16T05:16:51.721Z,9.18
2023-04-16T05:19:22.997Z,9.34
2023-04-16T05:21:53.774Z,9.49
2023-04-16T05:24:24.677Z,9.60
2023-04-16T05:26:58.531Z,9.74
2023-04-16T05:29:29.571Z,9.92
2023-04-16T05:32:00.404Z,10.12
2023-04-16T05:34:31.685Z,10.26
2023-04-16T05:37:02.737Z,10.43
2023-04-16T05:39:33.758Z,10.54
2023-04-16T05:42:07.478Z,10.66
2023-04-16T05:44:38.381Z,10.76
2023-04-16T05:47:09.781Z,10.84
2023-04-16T05:49:40.911Z,10.89
2023-04-16T05:52:12.333Z,10.96
2023-04-16T05:54:43.280Z,10.99
2023-04-16T05:57:17.027Z,11.01
2023-04-16T05:59:47.790Z,11.10
2023-04-16T06:02:18.817Z,11.17
2023-04-16T06:04:50.326Z,11.15
2023-04-16T06:07:21.343Z,11.27
2023-04-16T06:09:52.194Z,11.31
2023-04-16T06:12:25.694Z,11.38
2023-04-16T06:14:56.596Z,11.49
2023-04-16T06:17:27.441Z,11.57
2023-04-16T06:19:58.200Z,11.63
2023-04-16T06:22:28.851Z,11.71
2023-04-16T06:24:59.631Z,11.76
2023-04-16T06:27:34.207Z,11.73
2023-04-16T06:30:04.985Z,11.85
2023-04-16T06:32:35.863Z,11.84
2023-04-16T06:35:06.846Z,11.94
2023-04-16T06:37:37.711Z,11.97
2023-04-16T06:40:09.599Z,12.01
2023-04-16T06:42:45.320Z,12.01
2023-04-16T06:45:16.836Z,12.05
2023-04-16T06:47:48.444Z,12.05
2023-04-16T06:50:19.488Z,12.10
2023-04-16T06:52:50.150Z,12.10
2023-04-16T06:55:21.378Z,12.16
2023-04-16T06:57:54.987Z,12.19
2023-04-16T07:00:25.926Z,12.30
2023-04-16T07:02:58.654Z,12.39
2023-04-16T07:05:29.708Z,12.43
2023-04-16T07:08:00.708Z,12.53
2023-04-16T07:10:31.627Z,12.45
2023-04-16T07:13:05.078Z,12.66
2023-04-16T07:15:35.808Z,12.99
2023-04-16T07:18:06.675Z,13.28
2023-04-16T07:20:37.574Z,13.74
2023-04-16T07:23:08.254Z,14.14
2023-04-16T07:25:39.367Z,14.73
2023-04-16T07:28:12.790Z,15.33
2023-04-16T07:30:43.740Z,15.96
2023-04-16T07:33:14.510Z,16.57
2023-04-16T07:35:45.622Z,17.09
2023-04-16T07:38:16.688Z,17.64
2023-04-16T07:40:47.557Z,18.20
2023-04-16T07:43:21.139Z,18.80
2023-04-16T07:45:51.967Z,19.37
2023-04-16T07:48:22.690Z,19.90
2023-04-16T07:50:53.536Z,20.40
2023-04-16T07:53:24.227Z,20.86
2023-04-16T07:55:54.975Z,21.19
2023-04-16T07:58:28.323Z,21.52
2023-04-16T08:00:59.515Z,21.77
2023-04-16T08:03:30.941Z,21.91
2023-04-16T08:06:02.026Z,22.13
2023-04-16T08:08:32.725Z,22.26
2023-04-16T08:11:03.523Z,22.34
2023-04-16T08:13:36.958Z,22.34
2023-04-16T08:16:08.566Z,22.36
2023-04-16T08:18:39.626Z,22.44
2023-04-16T08:21:10.638Z,22.47
2023-04-16T08:23:41.679Z,22.50
2023-04-16T08:26:12.511Z,22.64
2023-04-16T08:28:45.934Z,22.80
2023-04-16T08:31:16.906Z,22.85
2023-04-16T08:33:47.738Z,22.91
2023-04-16T08:36:18.539Z,22.98
2023-04-16T08:38:49.225Z,23.02
2023-04-16T08:41:20.179Z,23.12
2023-04-16T08:43:57.615Z,23.08
2023-04-16T08:46:29.420Z,22.97
2023-04-16T08:49:04.564Z,22.77
2023-04-16T08:51:38.662Z,22.46
2023-04-16T08:54:13.841Z,22.14
2023-04-16T08:56:45.335Z,21.79
2023-04-16T08:59:18.652Z,21.27
2023-04-16T09:01:49.613Z,21.01
2023-04-16T09:04:20.827Z,20.61
2023-04-16T09:06:52.905Z,20.20
2023-04-16T09:09:24.776Z,19.88
2023-04-16T09:11:56.297Z,19.59
2023-04-16T09:14:30.202Z,19.33
2023-04-16T09:17:02.752Z,19.13
2023-04-16T09:19:33.410Z,18.80
2023-04-16T09:22:04.368Z,18.74
2023-04-16T09:24:35.821Z,18.51
2023-04-16T09:27:07.107Z,18.27
2023-04-16T09:29:42.183Z,18.06
2023-04-16T09:32:14.638Z,17.96
2023-04-16T09:34:58.769Z,17.91
2023-04-16T09:37:30.303Z,17.89
2023-04-16T09:40:02.826Z,17.96
2023-04-16T09:42:40.121Z,18.01
2023-04-16T09:45:14.587Z,18.07
2023-04-16T09:47:46.422Z,18.10
2023-04-16T09:50:19.655Z,18.14
2023-04-16T09:52:52.814Z,18.19
2023-04-16T09:55:26.830Z,18.19
2023-04-16T09:58:03.083Z,18.18
2023-04-16T10:00:36.554Z,18.12
2023-04-16T10:03:14.110Z,18.05
2023-04-16T10:05:44.985Z,18.04
2023-04-16T10:08:16.516Z,18.03
2023-04-16T10:10:47.661Z,18.03
2023-04-16T10:13:19.522Z,17.97
2023-04-16T10:15:53.800Z,17.87
2023-04-16T10:18:24.937Z,17.81
2023-04-16T10:20:56.067Z,17.77
2023-04-16T10:23:26.913Z,17.75
2023-04-16T10:25:58.357Z,17.71
2023-04-16T10:28:29.836Z,17.68
2023-04-16T10:31:04.800Z,17.67
2023-04-16T10:33:37.123Z,17.70
2023-04-16T10:36:12.845Z,17.78
2023-04-16T10:38:45.177Z,17.88
2023-04-16T10:41:16.083Z,18.02
2023-04-16T10:43:48.254Z,18.21
2023-04-16T10:46:27.128Z,18.41
2023-04-16T10:48:59.287Z,18.58
2023-04-16T10:51:32.551Z,18.75
2023-04-16T10:54:07.836Z,18.83
2023-04-16T10:56:40.094Z,18.93
2023-04-16T10:59:13.414Z,18.98
2023-04-16T11:01:49.208Z,18.82
2023-04-16T11:04:36.562Z,18.60
2023-04-16T11:07:09.950Z,18.52
2023-04-16T11:09:55.448Z,18.23
2023-04-16T11:12:28.040Z,18.11
2023-04-16T11:15:02.725Z,17.76
2023-04-16T11:17:43.772Z,17.87
2023-04-16T11:20:21.763Z,17.91
2023-04-16T11:22:55.345Z,17.93
2023-04-16T11:25:27.457Z,17.97
2023-04-16T11:27:59.329Z,18.03
2023-04-16T11:30:34.592Z,18.09
2023-04-16T11:33:09.098Z,18.05
2023-04-16T11:35:39.920Z,18.19
2023-04-16T11:38:11.090Z,18.22
2023-04-16T11:40:41.782Z,18.04
2023-04-16T11:43:18.345Z,17.96
2023-04-16T11:46:07.484Z,17.74
2023-04-16T11:48:53.445Z,17.67
2023-04-16T11:51:25.082Z,17.50
2023-04-16T11:53:57.007Z,17.43
2023-04-16T11:56:31.566Z,17.25
2023-04-16T11:59:13.445Z,17.21
2023-04-16T12:01:46.027Z,17.18
2023-04-16T12:04:21.888Z,17.13
2023-04-16T12:07:10.861Z,17.12
2023-04-16T12:09:42.950Z,17.09
2023-04-16T12:12:31.834Z,17.09
2023-04-16T12:15:04.345Z,17.00
2023-04-16T12:17:38.649Z,17.00
2023-04-16T12:20:16.031Z,17.00
2023-04-16T12:22:49.915Z,17.04
2023-04-16T12:25:21.434Z,17.11
2023-04-16T12:27:54.312Z,17.19
2023-04-16T12:30:26.588Z,17.29
2023-04-16T12:33:16.998Z,17.37
2023-04-16T12:35:51.281Z,17.45
2023-04-16T12:38:24.227Z,17.52
2023-04-16T12:40:57.406Z,17.51
2023-04-16T12:43:28.803Z,17.63
2023-04-16T12:45:59.637Z,17.71
2023-04-16T12:48:32.695Z,17.80
2023-04-16T12:51:06.288Z,17.90
2023-04-16T12:53:36.987Z,17.87
2023-04-16T12:56:08.385Z,17.81
2023-04-16T12:58:39.045Z,17.64
2023-04-16T13:01:09.747Z,17.58
2023-04-16T13:03:41.578Z,17.63
2023-04-16T13:06:15.782Z,17.73
2023-04-16T13:08:47.864Z,17.80
2023-04-16T13:11:19.398Z,17.77
2023-04-16T13:13:50.215Z,17.75
2023-04-16T13:16:21.263Z,17.77
2023-04-16T13:18:52.135Z,17.90
2023-04-16T13:21:27.551Z,17.96
2023-04-16T13:23:58.264Z,18.02
2023-04-16T13:26:29.249Z,18.08
2023-04-16T13:29:00.051Z,18.15
2023-04-16T13:31:31.123Z,18.19
2023-04-16T13:34:02.033Z,18.24
2023-04-16T13:36:35.737Z,18.11
2023-04-16T13:39:11.134Z,18.09
2023-04-16T13:41:42.199Z,17.98
2023-04-16T13:44:12.948Z,17.91
2023-04-16T13:46:47.908Z,17.87
2023-04-16T13:49:18.684Z,17.97
2023-04-16T13:51:52.037Z,18.00
2023-04-16T13:54:22.765Z,18.12
2023-04-16T13:56:54.196Z,18.22
2023-04-16T13:59:24.920Z,18.27
2023-04-16T14:01:55.892Z,18.30
2023-04-16T14:04:26.816Z,18.44
2023-04-16T14:07:00.699Z,18.46
2023-04-16T14:09:31.881Z,18.28
2023-04-16T14:12:02.924Z,18.20
2023-04-16T14:14:33.752Z,18.02
2023-04-16T14:17:04.896Z,17.98
2023-04-16T14:19:35.694Z,17.98
2023-04-16T14:22:09.694Z,18.01
2023-04-16T14:24:40.448Z,18.07
2023-04-16T14:27:12.561Z,18.12
2023-04-16T14:29:44.139Z,18.21
2023-04-16T14:32:15.057Z,18.10
2023-04-16T14:34:45.924Z,18.30
2023-04-16T14:37:20.809Z,18.33
2023-04-16T14:39:51.851Z,18.14
2023-04-16T14:42:22.762Z,17.93
2023-04-16T14:44:53.579Z,17.62
2023-04-16T14:47:24.578Z,17.43
2023-04-16T14:49:55.693Z,17.37
2023-04-16T14:52:29.426Z,17.31
2023-04-16T14:55:00.188Z,17.36
2023-04-16T14:57:31.171Z,17.26
2023-04-16T15:00:01.982Z,17.45
2023-04-16T15:02:35.236Z,17.50
2023-04-16T15:05:08.127Z,17.36
2023-04-16T15:07:41.503Z,17.32
2023-04-16T15:13:07.714Z,17.13
2023-04-16T15:15:39.284Z,17.16
2023-04-16T15:18:10.210Z,17.19
2023-04-16T15:20:41.334Z,17.09
2023-04-16T15:23:15.152Z,17.27
2023-04-16T15:25:47.061Z,17.28
2023-04-16T15:28:18.042Z,17.35
2023-04-16T15:30:49.274Z,17.41
2023-04-16T15:33:20.304Z,17.15
2023-04-16T15:35:51.868Z,17.06
2023-04-16T15:38:25.309Z,17.05
2023-04-16T15:40:56.064Z,16.85
2023-04-16T15:43:30.751Z,16.78
2023-04-16T15:46:01.619Z,16.64
2023-04-16T15:48:32.477Z,16.55
2023-04-16T15:51:03.225Z,16.51
2023-04-16T15:53:37.753Z,16.52
2023-04-16T15:56:08.828Z,16.54
2023-04-16T15:58:40.136Z,16.55
2023-04-16T16:01:10.807Z,16.59
2023-04-16T16:03:42.017Z,16.63
2023-04-16T16:06:14.258Z,16.66
2023-04-16T16:08:48.783Z,16.68
2023-04-16T16:11:19.450Z,16.58
2023-04-16T16:13:50.491Z,16.44
2023-04-16T16:16:22.108Z,16.28
2023-04-16T16:18:52.860Z,16.15
2023-04-16T16:21:23.794Z,15.99
2023-04-16T16:23:57.291Z,15.88
2023-04-16T16:26:28.452Z,15.86
2023-04-16T16:28:59.624Z,15.85
2023-04-16T16:31:30.481Z,15.89
2023-04-16T16:34:01.370Z,15.93
2023-04-16T16:36:36.971Z,15.98
2023-04-16T16:39:10.494Z,16.03
2023-04-16T16:41:42.515Z,16.07
2023-04-16T16:44:13.446Z,16.11
2023-04-16T16:46:44.284Z,16.15
2023-04-16T16:49:15.083Z,16.17
2023-04-16T16:51:47.997Z,16.17
2023-04-16T16:54:21.472Z,16.18
2023-04-16T16:56:52.445Z,16.20
2023-04-16T16:59:23.631Z,16.21
2023-04-16T17:01:54.350Z,16.21
2023-04-16T17:04:25.388Z,16.19
2023-04-16T17:06:56.380Z,16.18
2023-04-16T17:09:29.935Z,16.14
2023-04-16T17:12:00.670Z,16.13
2023-04-16T17:14:31.492Z,16.12
2023-04-16T17:17:02.490Z,16.10
2023-04-16T17:19:33.339Z,16.04
2023-04-16T17:22:04.148Z,16.01
2023-04-16T17:24:37.614Z,15.95
2023-04-16T17:27:08.441Z,15.91
2023-04-16T17:29:39.250Z,15.88
2023-04-16T17:32:10.137Z,15.84
2023-04-16T17:34:40.954Z,15.76
2023-04-16T17:37:11.776Z,15.71
2023-04-16T17:39:45.233Z,15.66
2023-04-16T17:42:16.152Z,15.62
2023-04-16T17:44:46.904Z,15.55
2023-04-16T17:47:18.067Z,15.48
2023-04-16T17:49:48.908Z,15.40
2023-04-16T17:52:21.658Z,15.31
2023-04-16T17:55:00.660Z,15.23
2023-04-16T17:57:32.779Z,15.13
2023-04-16T18:00:06.100Z,15.06
2023-04-16T18:02:43.889Z,14.97
2023-04-16T18:05:15.551Z,14.93
2023-04-16T18:07:47.308Z,14.89
2023-04-16T18:10:20.750Z,14.85
2023-04-16T18:12:51.701Z,14.83
2023-04-16T18:15:22.711Z,14.78
2023-04-16T18:17:54.766Z,14.76
2023-04-16T18:20:25.863Z,14.52
2023-04-16T18:22:56.897Z,14.69
2023-04-16T18:25:35.161Z,14.62
2023-04-16T18:28:06.915Z,14.38
2023-04-16T18:30:40.677Z,14.51
2023-04-16T18:33:39.015Z,14.28
2023-04-16T18:36:04.482Z,14.22
2023-04-16T18:38:36.974Z,14.23
2023-04-16T18:41:22.737Z,14.18
2023-04-16T18:43:53.689Z,14.12
2023-04-16T18:46:24.436Z,14.20
2023-04-16T18:48:55.119Z,14.16
2023-04-16T18:51:25.750Z,14.11
2023-04-16T18:53:56.520Z,14.05
2023-04-16T18:56:32.153Z,13.99
2023-04-16T18:59:02.781Z,13.93
2023-04-16T19:01:33.601Z,13.90
2023-04-16T19:04:04.414Z,13.86
2023-04-16T19:06:35.099Z,13.80
2023-04-16T19:09:06.433Z,13.75
2023-04-16T19:11:39.830Z,13.68
2023-04-16T19:14:10.689Z,13.53
2023-04-16T19:16:42.184Z,12.83
2023-04-16T19:19:13.298Z,11.92
2023-04-16T19:21:44.186Z,11.09
2023-04-16T19:24:14.776Z,10.52
2023-04-16T19:26:48.105Z,10.11
2023-04-16T19:29:18.748Z,9.90
2023-04-16T19:31:49.539Z,9.75
2023-04-16T19:34:20.376Z,9.63
2023-04-16T19:36:51.105Z,9.55
2023-04-16T19:39:21.835Z,9.47
2023-04-16T19:41:55.243Z,9.37
2023-04-16T19:44:27.925Z,9.31
2023-04-16T19:46:58.586Z,9.21
2023-04-16T19:49:36.964Z,9.05
2023-04-16T19:52:08.066Z,9.08
2023-04-16T19:54:38.836Z,8.98
2023-04-16T19:57:12.239Z,8.95
2023-04-16T19:59:43.093Z,8.91
2023-04-16T20:02:13.989Z,8.86
2023-04-16T20:04:45.023Z,9.01
2023-04-16T20:07:15.734Z,9.13
2023-04-16T20:09:46.589Z,9.26
2023-04-16T20:12:19.860Z,9.44
2023-04-16T20:14:50.606Z,9.60
2023-04-16T20:17:21.350Z,9.76
2023-04-16T20:19:52.070Z,9.90
2023-04-16T20:22:22.789Z,10.04
2023-04-16T20:24:55.412Z,10.16
2023-04-16T20:27:29.198Z,10.25
2023-04-16T20:30:00.008Z,10.39
2023-04-16T20:32:31.981Z,10.50
2023-04-16T20:35:04.338Z,10.58
2023-04-16T20:37:38.368Z,10.66
2023-04-16T20:40:11.145Z,10.72
2023-04-16T20:42:46.542Z,10.79
2023-04-16T20:45:17.400Z,10.83
2023-04-16T20:47:48.246Z,10.86
2023-04-16T20:50:19.292Z,10.90
2023-04-16T20:52:49.956Z,10.93
2023-04-16T20:55:21.138Z,10.94
2023-04-16T20:57:54.511Z,10.88
2023-04-16T21:00:25.637Z,10.94
2023-04-16T21:02:56.897Z,10.94
2023-04-16T21:05:30.277Z,10.94
2023-04-16T21:08:00.949Z,10.93
2023-04-16T21:10:31.792Z,10.92
2023-04-16T21:13:05.217Z,10.89
2023-04-16T21:15:35.957Z,10.86
2023-04-16T21:18:07.036Z,10.85
2023-04-16T21:20:38.549Z,10.82
2023-04-16T21:23:09.586Z,10.79
2023-04-16T21:25:40.395Z,10.78
2023-04-16T21:28:13.810Z,10.75
2023-04-16T21:30:45.063Z,10.72
2023-04-16T21:33:16.992Z,10.70
2023-04-16T21:35:47.731Z,10.68
2023-04-16T21:38:18.448Z,10.64
2023-04-16T21:40:51.035Z,10.60
2023-04-16T21:43:24.645Z,10.56
2023-04-16T21:45:56.628Z,10.46
2023-04-16T21:48:28.729Z,10.49
2023-04-16T21:51:00.385Z,10.45
2023-04-16T21:53:32.378Z,10.08
2023-04-16T21:56:03.931Z,9.89
2023-04-16T21:58:37.221Z,9.53
2023-04-16T22:01:10.847Z,9.42
2023-04-16T22:03:42.273Z,9.61
2023-04-16T22:06:13.645Z,10.07
2023-04-16T22:08:44.982Z,10.68
2023-04-16T22:11:15.850Z,11.31
2023-04-16T22:13:49.758Z,11.85
2023-04-16T22:16:20.650Z,12.33
2023-04-16T22:18:51.551Z,12.81
2023-04-16T22:21:22.443Z,13.16
2023-04-16T22:23:53.199Z,13.45
2023-04-16T22:26:24.093Z,13.67
2023-04-16T22:28:57.446Z,13.84
2023-04-16T22:31:28.490Z,13.91
2023-04-16T22:34:00.228Z,13.95
2023-04-16T22:36:32.610Z,14.02
2023-04-16T22:39:04.669Z,14.02
2023-04-16T22:41:35.556Z,13.92
2023-04-16T22:44:08.938Z,13.79
2023-04-16T22:46:39.729Z,13.55
2023-04-16T22:49:10.652Z,13.20
2023-04-16T22:51:41.602Z,12.91
2023-04-16T22:54:13.936Z,12.71
2023-04-16T22:56:44.978Z,12.53
2023-04-16T22:59:18.364Z,12.49
2023-04-16T23:01:49.251Z,12.47
2023-04-16T23:04:20.408Z,12.46
2023-04-16T23:06:51.717Z,12.51
2023-04-16T23:09:22.851Z,12.55
2023-04-16T23:11:53.711Z,12.65
2023-04-16T23:14:27.077Z,12.77
2023-04-16T23:16:58.016Z,12.84
2023-04-16T23:19:28.894Z,12.89
2023-04-16T23:21:59.623Z,12.92
2023-04-16T23:24:30.420Z,12.97
2023-04-16T23:27:01.549Z,13.00
2023-04-16T23:29:35.438Z,13.02
2023-04-16T23:32:06.358Z,13.02
2023-04-16T23:34:37.191Z,13.04
2023-04-16T23:37:07.929Z,13.06
2023-04-16T23:39:38.809Z,13.01
2023-04-16T23:42:09.545Z,12.95
2023-04-16T23:44:43.035Z,12.92
2023-04-16T23:47:13.745Z,12.89
2023-04-16T23:49:44.562Z,12.84
2023-04-16T23:52:15.304Z,12.80
2023-04-16T23:54:46.084Z,12.81
2023-04-16T23:57:16.817Z,12.87
2023-04-16T23:59:50.170Z,12.98
